sensor_id;sensor_type;location;lat;lon;timestamp;pressure;altitude;pressure_sealevel;temperature;humidity
35649;BME280;21768;48.562;13.414;2023-05-08T00:01:56;97649.19;;;15.11;57.69
35649;BME280;21768;48.562;13.414;2023-05-08T00:04:21;97644.91;;;15.10;57.83
35649;BME280;21768;48.562;13.414;2023-05-08T00:06:46;97646.72;;;15.13;57.73
35649;BME280;21768;48.562;13.414;2023-05-08T00:09:12;97652.69;;;15.13;57.81
35649;BME280;21768;48.562;13.414;2023-05-08T00:11:38;97643.09;;;15.08;57.95
35649;BME280;21768;48.562;13.414;2023-05-08T00:14:03;97653.97;;;15.05;58.24
35649;BME280;21768;48.562;13.414;2023-05-08T00:16:30;97650.66;;;15.06;58.34
35649;BME280;21768;48.562;13.414;2023-05-08T00:18:55;97649.44;;;15.00;58.22
35649;BME280;21768;48.562;13.414;2023-05-08T00:21:21;97650.16;;;14.97;58.66
35649;BME280;21768;48.562;13.414;2023-05-08T00:23:46;97648.25;;;14.93;59.40
35649;BME280;21768;48.562;13.414;2023-05-08T00:26:12;97654.69;;;14.86;58.94
35649;BME280;21768;48.562;13.414;2023-05-08T00:28:37;97652.72;;;14.81;59.18
35649;BME280;21768;48.562;13.414;2023-05-08T00:31:02;97663.16;;;14.71;59.74
35649;BME280;21768;48.562;13.414;2023-05-08T00:33:28;97665.28;;;14.63;59.83
35649;BME280;21768;48.562;13.414;2023-05-08T00:36:00;97660.00;;;14.58;60.38
35649;BME280;21768;48.562;13.414;2023-05-08T00:38:26;97658.00;;;14.53;60.29
35649;BME280;21768;48.562;13.414;2023-05-08T00:40:53;97661.88;;;14.46;60.66
35649;BME280;21768;48.562;13.414;2023-05-08T00:43:19;97670.69;;;14.38;60.62
35649;BME280;21768;48.562;13.414;2023-05-08T00:45:49;97665.31;;;14.32;61.09
35649;BME280;21768;48.562;13.414;2023-05-08T00:48:16;97671.00;;;14.28;61.28
35649;BME280;21768;48.562;13.414;2023-05-08T00:50:41;97676.53;;;14.21;61.61
35649;BME280;21768;48.562;13.414;2023-05-08T00:53:07;97679.50;;;14.14;61.81
35649;BME280;21768;48.562;13.414;2023-05-08T00:55:32;97680.75;;;14.06;61.72
35649;BME280;21768;48.562;13.414;2023-05-08T00:57:58;97682.16;;;14.01;61.83
35649;BME280;21768;48.562;13.414;2023-05-08T01:00:23;97684.44;;;13.96;61.81
35649;BME280;21768;48.562;13.414;2023-05-08T01:02:49;97677.94;;;13.86;61.69
35649;BME280;21768;48.562;13.414;2023-05-08T01:05:14;97687.00;;;13.81;61.73
35649;BME280;21768;48.562;13.414;2023-05-08T01:07:40;97687.59;;;13.77;61.84
35649;BME280;21768;48.562;13.414;2023-05-08T01:10:06;97695.81;;;13.73;61.73
35649;BME280;21768;48.562;13.414;2023-05-08T01:12:58;97689.19;;;13.60;61.69
35649;BME280;21768;48.562;13.414;2023-05-08T01:15:32;97708.31;;;13.55;62.22
35649;BME280;21768;48.562;13.414;2023-05-08T01:18:30;97702.09;;;13.50;62.47
35649;BME280;21768;48.562;13.414;2023-05-08T01:23:55;97707.50;;;13.42;62.59
35649;BME280;21768;48.562;13.414;2023-05-08T01:26:55;97714.13;;;13.40;62.51
35649;BME280;21768;48.562;13.414;2023-05-08T01:34:32;97723.09;;;13.20;62.39
35649;BME280;21768;48.562;13.414;2023-05-08T01:37:02;97723.69;;;13.16;62.61
35649;BME280;21768;48.562;13.414;2023-05-08T01:39:56;97727.66;;;13.12;62.47
35649;BME280;21768;48.562;13.414;2023-05-08T01:42:33;97735.88;;;13.08;62.73
35649;BME280;21768;48.562;13.414;2023-05-08T01:45:04;97736.47;;;13.04;62.72
35649;BME280;21768;48.562;13.414;2023-05-08T01:47:32;97734.63;;;13.02;62.99
35649;BME280;21768;48.562;13.414;2023-05-08T01:50:13;97745.94;;;12.93;63.10
35649;BME280;21768;48.562;13.414;2023-05-08T01:52:44;97734.56;;;12.87;63.12
35649;BME280;21768;48.562;13.414;2023-05-08T01:55:20;97738.69;;;12.85;63.37
35649;BME280;21768;48.562;13.414;2023-05-08T01:57:51;97738.28;;;12.79;63.22
35649;BME280;21768;48.562;13.414;2023-05-08T02:00:19;97742.19;;;12.74;63.46
35649;BME280;21768;48.562;13.414;2023-05-08T02:02:46;97740.94;;;12.67;63.77
35649;BME280;21768;48.562;13.414;2023-05-08T02:05:12;97740.47;;;12.59;63.51
35649;BME280;21768;48.562;13.414;2023-05-08T02:07:40;97739.13;;;12.51;63.75
35649;BME280;21768;48.562;13.414;2023-05-08T02:10:07;97743.78;;;12.45;63.71
35649;BME280;21768;48.562;13.414;2023-05-08T02:12:35;97744.25;;;12.40;63.82
35649;BME280;21768;48.562;13.414;2023-05-08T02:15:01;97746.13;;;12.29;63.97
35649;BME280;21768;48.562;13.414;2023-05-08T02:17:29;97742.44;;;12.24;63.96
35649;BME280;21768;48.562;13.414;2023-05-08T02:19:57;97738.16;;;12.23;64.14
35649;BME280;21768;48.562;13.414;2023-05-08T02:22:24;97738.91;;;12.22;64.31
35649;BME280;21768;48.562;13.414;2023-05-08T02:24:51;97745.72;;;12.23;64.41
35649;BME280;21768;48.562;13.414;2023-05-08T02:27:21;97728.59;;;12.19;64.33
35649;BME280;21768;48.562;13.414;2023-05-08T02:29:48;97740.06;;;12.14;64.26
35649;BME280;21768;48.562;13.414;2023-05-08T02:32:16;97740.38;;;12.05;64.41
35649;BME280;21768;48.562;13.414;2023-05-08T02:34:43;97742.13;;;12.06;64.45
35649;BME280;21768;48.562;13.414;2023-05-08T02:37:09;97743.78;;;12.06;64.38
35649;BME280;21768;48.562;13.414;2023-05-08T02:39:35;97736.97;;;12.05;64.50
35649;BME280;21768;48.562;13.414;2023-05-08T02:42:02;97740.38;;;12.05;64.57
35649;BME280;21768;48.562;13.414;2023-05-08T02:44:28;97752.94;;;12.04;64.65
35649;BME280;21768;48.562;13.414;2023-05-08T02:52:27;97760.69;;;11.93;64.78
35649;BME280;21768;48.562;13.414;2023-05-08T02:55:26;97759.69;;;11.91;64.71
35649;BME280;21768;48.562;13.414;2023-05-08T02:58:10;97762.22;;;11.91;64.79
35649;BME280;21768;48.562;13.414;2023-05-08T03:00:46;97754.53;;;11.90;64.72
35649;BME280;21768;48.562;13.414;2023-05-08T03:03:22;97766.91;;;11.85;64.88
35649;BME280;21768;48.562;13.414;2023-05-08T03:05:56;97769.22;;;11.82;64.69
35649;BME280;21768;48.562;13.414;2023-05-08T03:08:33;97771.75;;;11.82;64.70
35649;BME280;21768;48.562;13.414;2023-05-08T03:11:03;97763.88;;;11.78;64.89
35649;BME280;21768;48.562;13.414;2023-05-08T03:13:34;97768.47;;;11.72;64.82
35649;BME280;21768;48.562;13.414;2023-05-08T03:16:04;97771.09;;;11.73;64.90
35649;BME280;21768;48.562;13.414;2023-05-08T03:19:06;97765.28;;;11.74;64.79
35649;BME280;21768;48.562;13.414;2023-05-08T03:21:35;97770.34;;;11.74;65.11
35649;BME280;21768;48.562;13.414;2023-05-08T03:24:02;97770.22;;;11.73;65.00
35649;BME280;21768;48.562;13.414;2023-05-08T03:26:29;97765.75;;;11.69;65.25
35649;BME280;21768;48.562;13.414;2023-05-08T03:28:55;97765.44;;;11.64;65.15
35649;BME280;21768;48.562;13.414;2023-05-08T03:31:21;97760.38;;;11.64;65.15
35649;BME280;21768;48.562;13.414;2023-05-08T03:33:49;97760.59;;;11.67;65.20
35649;BME280;21768;48.562;13.414;2023-05-08T03:36:16;97772.56;;;11.70;65.21
35649;BME280;21768;48.562;13.414;2023-05-08T03:38:42;97773.31;;;11.69;64.91
35649;BME280;21768;48.562;13.414;2023-05-08T03:41:09;97769.94;;;11.68;64.70
35649;BME280;21768;48.562;13.414;2023-05-08T03:43:38;97778.28;;;11.67;64.61
35649;BME280;21768;48.562;13.414;2023-05-08T03:46:05;97778.84;;;11.63;64.75
35649;BME280;21768;48.562;13.414;2023-05-08T03:48:34;97781.19;;;11.60;64.70
35649;BME280;21768;48.562;13.414;2023-05-08T03:51:01;97785.66;;;11.64;64.46
35649;BME280;21768;48.562;13.414;2023-05-08T03:53:32;97786.63;;;11.66;64.63
35649;BME280;21768;48.562;13.414;2023-05-08T03:55:58;97787.22;;;11.62;64.75
35649;BME280;21768;48.562;13.414;2023-05-08T04:01:54;97798.38;;;11.52;64.31
35649;BME280;21768;48.562;13.414;2023-05-08T04:04:32;97789.06;;;11.40;63.97
35649;BME280;21768;48.562;13.414;2023-05-08T04:07:27;97805.78;;;11.38;64.42
35649;BME280;21768;48.562;13.414;2023-05-08T04:12:37;97812.41;;;11.24;64.09
35649;BME280;21768;48.562;13.414;2023-05-08T04:15:08;97817.34;;;11.22;63.92
35649;BME280;21768;48.562;13.414;2023-05-08T04:17:44;97817.03;;;11.18;63.61
35649;BME280;21768;48.562;13.414;2023-05-08T04:20:15;97827.34;;;11.21;63.62
35649;BME280;21768;48.562;13.414;2023-05-08T04:22:42;97831.75;;;11.23;63.68
35649;BME280;21768;48.562;13.414;2023-05-08T04:25:09;97823.50;;;11.14;63.69
35649;BME280;21768;48.562;13.414;2023-05-08T04:27:37;97832.66;;;11.12;63.71
35649;BME280;21768;48.562;13.414;2023-05-08T04:30:03;97835.75;;;11.08;64.15
35649;BME280;21768;48.562;13.414;2023-05-08T04:32:29;97833.84;;;11.17;63.54
35649;BME280;21768;48.562;13.414;2023-05-08T04:34:55;97831.28;;;11.29;63.73
35649;BME280;21768;48.562;13.414;2023-05-08T04:37:27;97840.06;;;11.34;63.08
35649;BME280;21768;48.562;13.414;2023-05-08T04:39:53;97833.47;;;11.36;63.01
35649;BME280;21768;48.562;13.414;2023-05-08T04:42:19;97836.88;;;11.37;63.18
35649;BME280;21768;48.562;13.414;2023-05-08T04:44:44;97843.31;;;11.45;63.10
35649;BME280;21768;48.562;13.414;2023-05-08T04:47:11;97844.16;;;11.57;62.62
35649;BME280;21768;48.562;13.414;2023-05-08T04:49:36;97847.69;;;11.59;62.61
35649;BME280;21768;48.562;13.414;2023-05-08T04:52:02;97848.66;;;11.61;62.25
35649;BME280;21768;48.562;13.414;2023-05-08T04:54:27;97853.13;;;11.65;62.22
35649;BME280;21768;48.562;13.414;2023-05-08T04:56:52;97855.38;;;11.61;61.88
35649;BME280;21768;48.562;13.414;2023-05-08T04:59:18;97860.09;;;11.56;62.28
35649;BME280;21768;48.562;13.414;2023-05-08T05:01:45;97863.50;;;11.56;62.82
35649;BME280;21768;48.562;13.414;2023-05-08T05:04:11;97874.09;;;11.76;62.72
35649;BME280;21768;48.562;13.414;2023-05-08T05:06:36;97872.50;;;11.89;62.56
35649;BME280;21768;48.562;13.414;2023-05-08T05:09:01;97875.41;;;12.07;61.56
35649;BME280;21768;48.562;13.414;2023-05-08T05:11:27;97875.00;;;12.14;61.51
35649;BME280;21768;48.562;13.414;2023-05-08T05:13:53;97876.31;;;12.21;61.50
35649;BME280;21768;48.562;13.414;2023-05-08T05:16:18;97880.31;;;12.31;61.38
35649;BME280;21768;48.562;13.414;2023-05-08T05:18:43;97870.69;;;12.38;61.06
35649;BME280;21768;48.562;13.414;2023-05-08T05:21:09;97875.78;;;12.51;60.78
35649;BME280;21768;48.562;13.414;2023-05-08T05:23:35;97876.09;;;12.56;60.31
35649;BME280;21768;48.562;13.414;2023-05-08T05:26:01;97877.75;;;12.55;60.38
35649;BME280;21768;48.562;13.414;2023-05-08T05:28:26;97869.38;;;12.70;60.44
35649;BME280;21768;48.562;13.414;2023-05-08T05:30:52;97880.28;;;12.69;59.99
35649;BME280;21768;48.562;13.414;2023-05-08T05:33:17;97873.84;;;12.74;59.96
35649;BME280;21768;48.562;13.414;2023-05-08T05:35:43;97875.59;;;12.75;59.48
35649;BME280;21768;48.562;13.414;2023-05-08T05:38:08;97876.31;;;12.85;59.62
35649;BME280;21768;48.562;13.414;2023-05-08T05:40:33;97875.41;;;12.98;59.46
35649;BME280;21768;48.562;13.414;2023-05-08T05:42:59;97878.72;;;13.10;59.36
35649;BME280;21768;48.562;13.414;2023-05-08T05:45:24;97883.59;;;13.20;58.72
35649;BME280;21768;48.562;13.414;2023-05-08T05:47:49;97885.16;;;13.18;58.34
35649;BME280;21768;48.562;13.414;2023-05-08T05:50:18;97884.56;;;13.09;58.73
35649;BME280;21768;48.562;13.414;2023-05-08T05:52:44;97888.47;;;13.17;58.90
35649;BME280;21768;48.562;13.414;2023-05-08T05:55:09;97884.09;;;13.28;58.16
35649;BME280;21768;48.562;13.414;2023-05-08T05:57:34;97891.19;;;13.34;58.72
35649;BME280;21768;48.562;13.414;2023-05-08T06:00:01;97889.69;;;13.50;58.44
35649;BME280;21768;48.562;13.414;2023-05-08T06:02:26;97895.09;;;13.70;57.55
35649;BME280;21768;48.562;13.414;2023-05-08T06:04:51;97901.00;;;13.83;57.72
35649;BME280;21768;48.562;13.414;2023-05-08T06:07:17;97905.41;;;14.01;57.10
35649;BME280;21768;48.562;13.414;2023-05-08T06:09:42;97895.00;;;14.11;56.30
35649;BME280;21768;48.562;13.414;2023-05-08T06:12:08;97902.47;;;14.22;56.58
35649;BME280;21768;48.562;13.414;2023-05-08T06:14:33;97897.91;;;14.17;56.61
35649;BME280;21768;48.562;13.414;2023-05-08T06:16:58;97903.78;;;14.16;56.53
35649;BME280;21768;48.562;13.414;2023-05-08T06:19:24;97896.44;;;14.06;56.36
35649;BME280;21768;48.562;13.414;2023-05-08T06:21:50;97902.28;;;14.05;56.62
35649;BME280;21768;48.562;13.414;2023-05-08T06:24:16;97899.56;;;14.16;56.75
35649;BME280;21768;48.562;13.414;2023-05-08T06:26:41;97899.34;;;14.26;56.33
35649;BME280;21768;48.562;13.414;2023-05-08T06:29:07;97898.78;;;14.17;56.39
35649;BME280;21768;48.562;13.414;2023-05-08T06:31:32;97905.91;;;14.23;56.57
35649;BME280;21768;48.562;13.414;2023-05-08T06:33:57;97908.31;;;14.49;56.27
35649;BME280;21768;48.562;13.414;2023-05-08T06:36:23;97912.19;;;14.72;55.00
35649;BME280;21768;48.562;13.414;2023-05-08T06:38:48;97909.38;;;14.68;55.07
35649;BME280;21768;48.562;13.414;2023-05-08T06:41:13;97909.72;;;14.74;54.29
35649;BME280;21768;48.562;13.414;2023-05-08T06:43:39;97906.03;;;14.69;54.91
35649;BME280;21768;48.562;13.414;2023-05-08T06:46:04;97909.00;;;14.91;54.96
35649;BME280;21768;48.562;13.414;2023-05-08T06:48:29;97913.38;;;15.08;54.13
35649;BME280;21768;48.562;13.414;2023-05-08T06:50:55;97908.34;;;15.10;53.11
35649;BME280;21768;48.562;13.414;2023-05-08T06:53:20;97905.19;;;14.83;54.00
35649;BME280;21768;48.562;13.414;2023-05-08T06:55:46;97914.56;;;14.84;54.66
35649;BME280;21768;48.562;13.414;2023-05-08T06:58:12;97910.16;;;14.81;53.73
35649;BME280;21768;48.562;13.414;2023-05-08T07:00:38;97907.44;;;14.93;54.23
35649;BME280;21768;48.562;13.414;2023-05-08T07:03:03;97900.44;;;15.20;53.61
35649;BME280;21768;48.562;13.414;2023-05-08T07:05:28;97906.63;;;15.40;52.53
35649;BME280;21768;48.562;13.414;2023-05-08T07:07:54;97909.94;;;15.39;52.90
35649;BME280;21768;48.562;13.414;2023-05-08T07:10:20;97913.13;;;15.35;52.41
35649;BME280;21768;48.562;13.414;2023-05-08T07:12:50;97911.09;;;15.44;51.63
35649;BME280;21768;48.562;13.414;2023-05-08T07:15:15;97902.09;;;15.34;52.32
35649;BME280;21768;48.562;13.414;2023-05-08T07:17:41;97905.22;;;15.45;52.68
35649;BME280;21768;48.562;13.414;2023-05-08T07:20:07;97906.38;;;15.66;52.26
35649;BME280;21768;48.562;13.414;2023-05-08T07:22:33;97900.03;;;15.74;52.16
35649;BME280;21768;48.562;13.414;2023-05-08T07:24:58;97899.16;;;15.74;51.23
35649;BME280;21768;48.562;13.414;2023-05-08T07:27:24;97902.00;;;15.63;51.53
35649;BME280;21768;48.562;13.414;2023-05-08T07:29:49;97897.88;;;15.65;51.81
35649;BME280;21768;48.562;13.414;2023-05-08T07:32:14;97905.91;;;15.73;51.99
35649;BME280;21768;48.562;13.414;2023-05-08T07:34:40;97903.53;;;15.76;51.50
35649;BME280;21768;48.562;13.414;2023-05-08T07:37:06;97900.84;;;15.73;51.27
35649;BME280;21768;48.562;13.414;2023-05-08T07:39:32;97904.66;;;15.81;51.95
35649;BME280;21768;48.562;13.414;2023-05-08T07:41:57;97904.66;;;15.97;50.94
35649;BME280;21768;48.562;13.414;2023-05-08T07:44:23;97908.50;;;16.06;50.95
35649;BME280;21768;48.562;13.414;2023-05-08T07:46:48;97906.72;;;16.21;50.95
35649;BME280;21768;48.562;13.414;2023-05-08T07:49:13;97906.69;;;16.37;50.79
35649;BME280;21768;48.562;13.414;2023-05-08T07:51:39;97906.34;;;16.47;50.50
35649;BME280;21768;48.562;13.414;2023-05-08T07:54:05;97911.59;;;16.50;49.87
35649;BME280;21768;48.562;13.414;2023-05-08T07:56:30;97916.41;;;16.28;50.22
35649;BME280;21768;48.562;13.414;2023-05-08T07:58:56;97917.53;;;16.17;49.59
35649;BME280;21768;48.562;13.414;2023-05-08T08:01:21;97918.41;;;16.17;50.49
35649;BME280;21768;48.562;13.414;2023-05-08T08:03:47;97916.56;;;16.15;50.14
35649;BME280;21768;48.562;13.414;2023-05-08T08:06:12;97912.03;;;16.25;51.06
35649;BME280;21768;48.562;13.414;2023-05-08T08:08:38;97919.13;;;16.31;49.75
35649;BME280;21768;48.562;13.414;2023-05-08T08:11:04;97915.38;;;16.24;50.00
35649;BME280;21768;48.562;13.414;2023-05-08T08:13:30;97911.63;;;16.34;49.77
35649;BME280;21768;48.562;13.414;2023-05-08T08:15:57;97912.09;;;16.43;49.94
35649;BME280;21768;48.562;13.414;2023-05-08T08:18:23;97913.19;;;16.64;49.60
35649;BME280;21768;48.562;13.414;2023-05-08T08:20:48;97901.50;;;16.86;48.82
35649;BME280;21768;48.562;13.414;2023-05-08T08:23:14;97909.81;;;16.82;48.41
35649;BME280;21768;48.562;13.414;2023-05-08T08:25:39;97912.47;;;16.67;48.36
35649;BME280;21768;48.562;13.414;2023-05-08T08:28:04;97911.03;;;16.72;48.96
35649;BME280;21768;48.562;13.414;2023-05-08T08:30:30;97906.44;;;16.83;48.52
35649;BME280;21768;48.562;13.414;2023-05-08T08:32:55;97911.03;;;16.72;48.86
35649;BME280;21768;48.562;13.414;2023-05-08T08:35:20;97907.53;;;16.70;48.45
35649;BME280;21768;48.562;13.414;2023-05-08T08:37:53;97911.25;;;16.77;48.64
35649;BME280;21768;48.562;13.414;2023-05-08T08:40:18;97910.63;;;16.81;48.57
35649;BME280;21768;48.562;13.414;2023-05-08T08:42:44;97901.84;;;16.76;48.49
35649;BME280;21768;48.562;13.414;2023-05-08T08:45:10;97908.88;;;16.97;48.83
35649;BME280;21768;48.562;13.414;2023-05-08T08:47:35;97903.34;;;17.06;48.38
35649;BME280;21768;48.562;13.414;2023-05-08T08:50:07;97902.03;;;17.32;47.23
35649;BME280;21768;48.562;13.414;2023-05-08T08:55:30;97907.81;;;17.65;47.32
35649;BME280;21768;48.562;13.414;2023-05-08T09:00:27;97903.13;;;17.74;46.96
35649;BME280;21768;48.562;13.414;2023-05-08T09:02:54;97891.47;;;17.79;46.82
35649;BME280;21768;48.562;13.414;2023-05-08T09:05:21;97895.94;;;17.85;46.35
35649;BME280;21768;48.562;13.414;2023-05-08T09:07:48;97890.28;;;18.11;46.94
35649;BME280;21768;48.562;13.414;2023-05-08T09:10:14;97898.00;;;18.51;46.03
35649;BME280;21768;48.562;13.414;2023-05-08T09:12:39;97885.53;;;19.21;43.79
35649;BME280;21768;48.562;13.414;2023-05-08T09:15:05;97897.63;;;20.40;40.94
35649;BME280;21768;48.562;13.414;2023-05-08T09:17:31;97882.06;;;21.38;39.30
35649;BME280;21768;48.562;13.414;2023-05-08T09:19:56;97877.53;;;22.83;37.93
35649;BME280;21768;48.562;13.414;2023-05-08T09:22:22;97882.81;;;23.62;36.22
35649;BME280;21768;48.562;13.414;2023-05-08T09:25:01;97880.41;;;24.57;35.12
35649;BME280;21768;48.562;13.414;2023-05-08T09:27:29;97876.50;;;25.33;33.24
35649;BME280;21768;48.562;13.414;2023-05-08T09:32:27;97878.41;;;26.10;31.72
35649;BME280;21768;48.562;13.414;2023-05-08T09:34:52;97877.34;;;26.73;30.70
35649;BME280;21768;48.562;13.414;2023-05-08T09:37:18;97881.50;;;26.57;31.06
35649;BME280;21768;48.562;13.414;2023-05-08T09:39:43;97868.53;;;26.53;30.15
35649;BME280;21768;48.562;13.414;2023-05-08T09:42:11;97871.25;;;26.65;30.86
35649;BME280;21768;48.562;13.414;2023-05-08T09:47:23;97880.53;;;27.51;29.96
35649;BME280;21768;48.562;13.414;2023-05-08T09:49:59;97875.25;;;26.35;29.65
35649;BME280;21768;48.562;13.414;2023-05-08T09:52:26;97877.31;;;25.91;31.26
35649;BME280;21768;48.562;13.414;2023-05-08T09:55:08;97873.97;;;26.01;31.84
35649;BME280;21768;48.562;13.414;2023-05-08T09:57:37;97882.59;;;26.00;31.04
35649;BME280;21768;48.562;13.414;2023-05-08T10:00:05;97882.63;;;26.03;30.77
35649;BME280;21768;48.562;13.414;2023-05-08T10:02:33;97874.31;;;27.23;29.51
35649;BME280;21768;48.562;13.414;2023-05-08T10:04:59;97870.66;;;29.18;27.20
35649;BME280;21768;48.562;13.414;2023-05-08T10:07:34;97871.50;;;31.08;25.17
35649;BME280;21768;48.562;13.414;2023-05-08T10:10:04;97859.19;;;32.05;23.25
35649;BME280;21768;48.562;13.414;2023-05-08T10:12:30;97863.75;;;31.91;24.33
35649;BME280;21768;48.562;13.414;2023-05-08T10:14:56;97855.66;;;31.34;24.67
35649;BME280;21768;48.562;13.414;2023-05-08T10:17:43;97847.59;;;30.48;26.14
35649;BME280;21768;48.562;13.414;2023-05-08T10:20:13;97845.47;;;29.49;26.81
35649;BME280;21768;48.562;13.414;2023-05-08T10:22:42;97854.13;;;29.56;25.52
35649;BME280;21768;48.562;13.414;2023-05-08T10:25:11;97848.06;;;29.37;25.53
35649;BME280;21768;48.562;13.414;2023-05-08T10:28:06;97841.09;;;29.65;26.33
35649;BME280;21768;48.562;13.414;2023-05-08T10:30:37;97837.34;;;30.24;24.93
35649;BME280;21768;48.562;13.414;2023-05-08T10:33:08;97842.19;;;30.80;24.45
35649;BME280;21768;48.562;13.414;2023-05-08T10:35:35;97842.50;;;32.17;22.31
35649;BME280;21768;48.562;13.414;2023-05-08T10:38:02;97836.34;;;33.33;21.94
35649;BME280;21768;48.562;13.414;2023-05-08T10:40:28;97842.31;;;33.86;21.94
35649;BME280;21768;48.562;13.414;2023-05-08T10:42:55;97839.34;;;34.01;20.94
35649;BME280;21768;48.562;13.414;2023-05-08T10:45:20;97844.00;;;34.65;20.63
35649;BME280;21768;48.562;13.414;2023-05-08T10:51:05;97835.81;;;34.81;19.61
35649;BME280;21768;48.562;13.414;2023-05-08T10:53:38;97837.19;;;32.23;21.58
35649;BME280;21768;48.562;13.414;2023-05-08T10:56:05;97825.84;;;31.55;22.88
35649;BME280;21768;48.562;13.414;2023-05-08T10:58:32;97816.72;;;33.06;22.32
35649;BME280;21768;48.562;13.414;2023-05-08T11:03:31;97812.91;;;33.70;20.71
35649;BME280;21768;48.562;13.414;2023-05-08T11:05:59;97818.31;;;33.62;20.69
35649;BME280;21768;48.562;13.414;2023-05-08T11:08:30;97809.59;;;33.16;21.17
35649;BME280;21768;48.562;13.414;2023-05-08T11:19:29;97810.84;;;28.54;26.23
35649;BME280;21768;48.562;13.414;2023-05-08T11:27:15;97801.63;;;26.07;30.00
35649;BME280;21768;48.562;13.414;2023-05-08T11:29:41;97796.06;;;25.71;30.77
35649;BME280;21768;48.562;13.414;2023-05-08T11:32:06;97798.03;;;25.27;30.69
35649;BME280;21768;48.562;13.414;2023-05-08T11:39:35;97792.09;;;24.24;32.49
35649;BME280;21768;48.562;13.414;2023-05-08T11:45:05;97786.97;;;23.80;32.64
35649;BME280;21768;48.562;13.414;2023-05-08T11:47:39;97798.09;;;23.78;33.75
35649;BME280;21768;48.562;13.414;2023-05-08T11:50:06;97796.22;;;23.69;34.01
35649;BME280;21768;48.562;13.414;2023-05-08T11:52:33;97800.69;;;23.79;33.75
35649;BME280;21768;48.562;13.414;2023-05-08T11:55:04;97792.59;;;23.61;33.76
35649;BME280;21768;48.562;13.414;2023-05-08T11:57:30;97796.53;;;23.44;35.08
35649;BME280;21768;48.562;13.414;2023-05-08T11:59:56;97788.81;;;23.44;34.34
35649;BME280;21768;48.562;13.414;2023-05-08T12:02:41;97783.56;;;23.40;34.41
35649;BME280;21768;48.562;13.414;2023-05-08T12:05:09;97781.16;;;23.48;33.91
35649;BME280;21768;48.562;13.414;2023-05-08T12:07:44;97781.19;;;23.50;33.86
35649;BME280;21768;48.562;13.414;2023-05-08T12:10:13;97788.53;;;23.31;33.83
35649;BME280;21768;48.562;13.414;2023-05-08T12:12:40;97782.88;;;22.71;34.72
35649;BME280;21768;48.562;13.414;2023-05-08T12:15:11;97776.19;;;22.43;37.13
35649;BME280;21768;48.562;13.414;2023-05-08T12:17:37;97790.03;;;22.83;36.30
35649;BME280;21768;48.562;13.414;2023-05-08T12:20:13;97786.81;;;22.91;35.57
35649;BME280;21768;48.562;13.414;2023-05-08T12:22:49;97786.16;;;23.00;34.87
35649;BME280;21768;48.562;13.414;2023-05-08T12:25:15;97788.00;;;23.07;34.21
35649;BME280;21768;48.562;13.414;2023-05-08T12:27:41;97776.56;;;22.94;35.01
35649;BME280;21768;48.562;13.414;2023-05-08T12:30:09;97777.91;;;22.79;35.82
35649;BME280;21768;48.562;13.414;2023-05-08T12:32:40;97784.56;;;22.70;35.31
35649;BME280;21768;48.562;13.414;2023-05-08T12:35:10;97786.63;;;22.49;35.57
35649;BME280;21768;48.562;13.414;2023-05-08T12:37:36;97793.78;;;22.28;36.89
35649;BME280;21768;48.562;13.414;2023-05-08T12:40:02;97775.88;;;22.31;36.65
35649;BME280;21768;48.562;13.414;2023-05-08T12:42:47;97794.50;;;22.57;36.47
35649;BME280;21768;48.562;13.414;2023-05-08T12:45:26;97782.22;;;22.80;36.11
35649;BME280;21768;48.562;13.414;2023-05-08T12:47:56;97790.78;;;23.16;36.22
35649;BME280;21768;48.562;13.414;2023-05-08T12:50:22;97779.41;;;23.46;35.25
35649;BME280;21768;48.562;13.414;2023-05-08T12:52:50;97788.41;;;23.66;34.29
35649;BME280;21768;48.562;13.414;2023-05-08T12:57:45;97785.88;;;23.28;35.44
35649;BME280;21768;48.562;13.414;2023-05-08T13:00:14;97782.53;;;23.32;35.81
35649;BME280;21768;48.562;13.414;2023-05-08T13:02:50;97787.00;;;23.39;35.46
35649;BME280;21768;48.562;13.414;2023-05-08T13:05:21;97780.44;;;23.54;35.32
35649;BME280;21768;48.562;13.414;2023-05-08T13:07:50;97771.19;;;23.63;35.82
35649;BME280;21768;48.562;13.414;2023-05-08T13:10:16;97776.66;;;23.80;35.65
35649;BME280;21768;48.562;13.414;2023-05-08T13:12:46;97774.31;;;23.92;35.41
35649;BME280;21768;48.562;13.414;2023-05-08T13:15:11;97774.47;;;24.01;34.91
35649;BME280;21768;48.562;13.414;2023-05-08T13:17:37;97769.69;;;23.76;34.02
35649;BME280;21768;48.562;13.414;2023-05-08T13:20:03;97773.13;;;23.34;34.06
35649;BME280;21768;48.562;13.414;2023-05-08T13:22:29;97766.00;;;23.21;33.96
35649;BME280;21768;48.562;13.414;2023-05-08T13:24:54;97767.81;;;23.25;34.58
35649;BME280;21768;48.562;13.414;2023-05-08T13:27:20;97762.44;;;23.55;35.66
35649;BME280;21768;48.562;13.414;2023-05-08T13:29:45;97757.56;;;23.69;34.23
35649;BME280;21768;48.562;13.414;2023-05-08T13:32:10;97757.31;;;23.57;34.97
35649;BME280;21768;48.562;13.414;2023-05-08T13:34:36;97751.38;;;23.61;34.90
35649;BME280;21768;48.562;13.414;2023-05-08T13:37:01;97749.03;;;23.71;34.38
35649;BME280;21768;48.562;13.414;2023-05-08T13:39:26;97748.25;;;23.76;34.86
35649;BME280;21768;48.562;13.414;2023-05-08T13:41:52;97745.56;;;23.71;34.07
35649;BME280;21768;48.562;13.414;2023-05-08T13:44:17;97757.88;;;23.44;34.59
35649;BME280;21768;48.562;13.414;2023-05-08T13:46:43;97743.91;;;23.32;35.39
35649;BME280;21768;48.562;13.414;2023-05-08T13:49:08;97752.22;;;23.19;34.69
35649;BME280;21768;48.562;13.414;2023-05-08T13:51:34;97749.31;;;23.04;34.90
35649;BME280;21768;48.562;13.414;2023-05-08T13:53:59;97748.16;;;22.90;34.44
35649;BME280;21768;48.562;13.414;2023-05-08T13:56:25;97752.19;;;22.79;34.47